Station APXF1 - East Bay, Apalachicola Reserve, FL Image indicating link to RSS feed of recent meteorological observations for station APXF1


Conditions at APXF1 as of
(7:00 am EDT)
1100 GMT on 05/08/2026:
     

Click on the graph icon in the table below to see a time series plot of the last five days of that observation.

5-day plot - Wind Direction Wind Direction (WDIR):NNE ( 20 deg true )
5-day plot - Wind Speed Wind Speed (WSPD): 5.1 kts
5-day plot - Atmospheric Pressure Atmospheric Pressure (PRES):29.97 in
5-day plot - Pressure Tendency Pressure Tendency (PTDY):+0.03 in ( Rising )
5-day plot - Air Temperature Air Temperature (ATMP): 74.8 °F
5-day plot - Dew Point Dew Point (DEWP): 73.4 °F
5-day plot -  Wind Speed, Wind Gust and Atmospheric Pressure Combined plot of Wind Speed, Gust, and Air Pressure
Previous observations
TIME
(EDT)
5-day plot - Wind Direction
WDIR
 
5-day plot - Wind Speed
WSPD
kts
5-day plot - Wind Gust
GST
kts
5-day plot - Wave Height
WVHT
ft
5-day plot - Dominant Wave Period
DPD
sec
5-day plot - Average Wave Period
APD
sec
5-day plot - Mean Wave Direction
MWD
 
5-day plot - Atmospheric Pressure
PRES
in
5-day plot - Pressure Tendency
PTDY
in
5-day plot - Air Temperature
ATMP
°F
5-day plot - Water Temperature
WTMP
°F
5-day plot - Dew Point
DEWP
°F
5-day plot - Salinity
SAL
psu
5-day plot - Visibility
VIS
nmi
5-day plot - Tide (above MLLW)
TIDE
ft
2026-05-08 06:45 am N 5.1-----29.97- 75.0- 73.6---
2026-05-08 06:30 am N 6.0-----29.94- 75.2- 73.8---
2026-05-08 06:15 am N 7.0-----29.94- 75.6- 73.8---
2026-05-08 06:00 amNNW 4.1-----29.94+0.00 76.1- 74.3---
2026-05-08 05:45 amNNW 4.1-----29.94- 76.3- 74.5---
2026-05-08 05:30 am NW 5.1-----29.94- 76.3- 74.5---
2026-05-08 05:15 am NW 6.0-----29.94- 76.6- 74.8---
2026-05-08 05:00 am NW 6.0-----29.94-0.03 77.0- 75.2---
2026-05-08 04:45 am NW 6.0-----29.94- 77.0- 75.2---
2026-05-08 04:30 am NW 5.1-----29.94- 77.0- 75.2---
2026-05-08 04:15 amWNW 4.1-----29.94- 77.0- 75.2---
2026-05-08 04:00 am W 6.0-----29.94-0.03 77.2- 75.4---
2026-05-08 03:45 am W 6.0-----29.94- 77.2- 75.0---
2026-05-08 03:30 amWNW 7.0-----29.94- 77.2- 75.0---
2026-05-08 03:15 am W 6.0-----29.94- 77.2- 75.0---
2026-05-08 03:00 am W 5.1-----29.94-0.03 77.2- 75.0---
2026-05-08 02:45 am W 6.0-----29.94- 77.2- 75.0---
2026-05-08 02:30 am W 7.0-----29.94- 77.4- 75.2---
2026-05-08 02:15 amWNW 6.0-----29.97- 77.5- 75.4---
2026-05-08 02:00 amWNW 7.0-----29.97+0.00 77.5- 75.4---
2026-05-08 01:45 am W 5.1-----29.97- 77.7- 75.6---
2026-05-08 01:30 am W 7.0-----29.97- 77.7- 75.6---
2026-05-08 01:15 am W 8.0-----29.97- 77.9- 75.7---
2026-05-08 01:00 am W 8.0-----29.97+0.03 78.1- 75.9---
2026-05-08 12:45 am W 8.9-----29.97- 77.9- 75.7---
2026-05-08 12:30 am W 8.9-----29.97- 78.1- 75.9---
2026-05-08 12:15 amWNW 8.9-----29.97- 78.1- 75.9---
2026-05-08 12:00 am W 8.0-----29.97+0.03 78.1- 75.9---
2026-05-07 11:45 pm W 8.0-----29.97- 78.3- 76.1---
2026-05-07 11:30 pm W 8.9-----29.97- 78.4- 76.3---
2026-05-07 11:15 pm W 9.9-----29.97- 78.4- 76.3---
2026-05-07 11:00 pm W 9.9-----29.97+0.03 78.4- 76.6---
2026-05-07 10:45 pmWSW 9.9-----29.97- 78.4- 76.6---
2026-05-07 10:30 pmWSW 9.9-----29.94- 78.4- 76.3---
2026-05-07 10:15 pmWSW 8.9-----29.94- 78.4- 76.3---
2026-05-07 10:00 pmWSW 8.9-----29.94+0.00 78.4- 76.3---
2026-05-07 09:45 pmWSW 7.0-----29.94- 78.3- 76.1---
2026-05-07 09:30 pmWSW 7.0-----29.94- 78.3- 76.1---
2026-05-07 09:15 pm SW 6.0-----29.94- 78.3- 76.1---
2026-05-07 09:00 pmWSW 6.0-----29.94-0.03 78.4- 76.3---
2026-05-07 08:45 pmWSW 6.0-----29.94- 78.4- 76.3---
2026-05-07 08:30 pmWSW 5.1-----29.94- 78.4- 75.9---
2026-05-07 08:15 pm SW 6.0-----29.94- 78.4- 75.9---
2026-05-07 08:00 pm SW 5.1-----29.94+0.00 78.4- 75.9---
2026-05-07 07:45 pmWSW 6.0-----29.94- 78.6- 76.1---
2026-05-07 07:30 pm SW 6.0-----29.94- 78.6- 75.9---
2026-05-07 07:15 pm SW 6.0-----29.94- 78.3- 75.7---
2026-05-07 07:00 pmSSW 5.1-----29.94-0.03 78.6- 75.9---
2026-05-07 06:45 pmWSW 7.0-----29.94- 79.0- 75.9---
2026-05-07 06:30 pm SW 6.0-----29.94- 79.0- 75.9---
2026-05-07 06:15 pm SW 6.0-----29.94- 79.0- 75.9---
2026-05-07 06:00 pm SW 7.0-----29.97+0.00 79.2- 75.4---
2026-05-07 05:45 pmWSW 8.0-----29.94- 79.7- 75.6---
2026-05-07 05:30 pmWSW 8.0-----29.94- 79.7- 75.6---
2026-05-07 05:15 pmWSW 8.0-----29.94- 79.9- 75.4---
2026-05-07 05:00 pmWSW 8.0-----29.94-0.06 79.9- 75.7---
2026-05-07 04:45 pmWSW 8.0-----29.94- 79.7- 75.2---
2026-05-07 04:30 pmWSW 7.0-----29.97- 79.9- 75.4---
2026-05-07 04:15 pmWSW 7.0-----29.97- 79.9- 75.0---
2026-05-07 04:00 pm SW 7.0-----29.97-0.06 80.1- 75.2---
2026-05-07 03:45 pmWSW 7.0-----29.97- 80.1- 74.8---
2026-05-07 03:30 pm SW 7.0-----29.97- 80.1- 74.8---
2026-05-07 03:15 pm SW 7.0-----29.97- 80.1- 74.8---
2026-05-07 03:00 pmWSW 8.0-----29.97-0.06 79.7- 74.5---
2026-05-07 02:45 pmWSW 8.0-----30.00- 79.7- 74.5---
2026-05-07 02:30 pmWSW 8.0-----30.00- 79.9- 74.7---
2026-05-07 02:15 pm SW 7.0-----30.00- 80.1- 74.7---
2026-05-07 02:00 pmWSW 7.0-----30.00-0.03 79.5- 74.5---
2026-05-07 01:45 pmWSW 7.0-----30.03- 79.2- 74.1---
2026-05-07 01:30 pmWSW 8.0-----30.00- 79.5- 74.1---
2026-05-07 01:15 pmWSW 7.0-----30.00- 79.7- 74.3---
2026-05-07 01:00 pmWSW 8.0-----30.03+0.03 79.0- 74.1---
2026-05-07 12:45 pmWSW 8.0-----30.03- 78.8- 73.9---
2026-05-07 12:30 pmWSW 8.0-----30.03- 78.8- 73.9---
2026-05-07 12:15 pmWSW 8.0-----30.03- 78.4- 73.9---
2026-05-07 12:00 pmWSW 8.0-----30.03+0.03 78.4- 73.9---
2026-05-07 11:45 amWSW 8.0-----30.00- 78.3- 73.6---
2026-05-07 11:30 amWSW 7.0-----30.00- 78.3- 73.8---
2026-05-07 11:15 amWSW 8.0-----30.00- 77.5- 73.8---
2026-05-07 11:00 amWSW 8.0-----30.03+0.06 77.4- 73.2---
2026-05-07 10:45 amWSW 6.0-----30.03- 77.5- 73.4---
2026-05-07 10:30 amWSW 6.0-----30.03- 77.5- 73.4---
2026-05-07 10:15 amWSW 7.0-----30.00- 77.5- 73.0---
2026-05-07 10:00 amWSW 6.0-----30.00+0.06 77.5- 73.4---
2026-05-07 09:45 amWSW 7.0-----30.00- 77.5- 73.4---
2026-05-07 09:30 am SW 5.1-----30.00- 77.5- 73.4---
2026-05-07 09:15 amWSW 6.0-----30.00- 77.5- 73.4---
2026-05-07 09:00 am SW 6.0-----30.00+0.06 77.5- 73.4---
2026-05-07 08:45 amWSW 6.0-----30.00- 77.2- 73.4---
2026-05-07 08:30 amWSW 6.0-----30.00- 76.8- 73.0---
2026-05-07 08:15 amWSW 5.1-----29.97- 76.6- 73.2---
2026-05-07 08:00 amSSW 5.1-----29.97+0.03 76.3- 73.6---
2026-05-07 07:45 am SW 5.1-----29.97- 75.9- 73.4---
2026-05-07 07:30 am SW 4.1-----29.94- 75.4- 73.2---
2026-05-07 07:15 am SW 4.1-----29.94- 75.0- 72.9---
2026-05-07 07:00 am SW 4.1-----29.94+0.00 75.0- 72.9---